Time;durP1;ratioP1;P1;durP2;ratioP2;P2;SDS_P1;SDS_P2;PMS_P1;PMS_P2;Temp;Humidity;BMP_temperature;BMP_pressure;BME280_temperature;BME280_humidity;BME280_pressure;Samples;Min_cycle;Max_cycle;Signal;HPM_P1;HPM_P2
2024/01/29 00:03:29;;;;;;;13.20;5.80;;;;;;;-2.03;100.00;101495.09;10258020;29;20043;-72
2024/01/29 00:08:30;;;;;;;11.20;5.85;;;;;;;-2.36;100.00;101451.25;10258119;29;20508;-72
2024/01/29 00:13:31;;;;;;;8.40;5.53;;;;;;;-2.37;100.00;101462.53;10257762;29;20093;-72
2024/01/29 00:18:31;;;;;;;9.80;5.85;;;;;;;-2.54;100.00;101452.78;10256949;29;20043;-72
2024/01/29 00:23:32;;;;;;;11.18;5.63;;;;;;;-2.39;100.00;101478.22;10257373;29;20186;-72
2024/01/29 00:28:33;;;;;;;10.02;5.63;;;;;;;-2.49;100.00;101440.44;10257208;29;20124;-75
2024/01/29 00:33:35;;;;;;;10.20;5.80;;;;;;;-2.25;100.00;101489.88;10256709;29;20050;-72
2024/01/29 00:38:36;;;;;;;10.43;6.07;;;;;;;-2.75;100.00;101441.41;10256784;29;20043;-72
2024/01/29 00:43:36;;;;;;;10.40;5.90;;;;;;;-2.61;100.00;101487.72;10256557;29;20063;-72
2024/01/29 00:48:37;;;;;;;10.65;5.70;;;;;;;-2.65;100.00;101493.94;10256058;29;20039;-72
2024/01/29 00:53:38;;;;;;;11.98;6.25;;;;;;;-3.00;100.00;101444.88;10256526;28;20130;-72
2024/01/29 00:58:43;;;;;;;12.18;6.50;;;;;;;-2.87;100.00;101455.72;10254501;29;20087;-72
2024/01/29 01:03:43;;;;;;;9.73;5.13;;;;;;;-2.92;100.00;101447.22;10255771;29;20047;-72
2024/01/29 01:08:44;;;;;;;11.93;6.43;;;;;;;-2.72;100.00;101492.44;10255334;29;20031;-72
2024/01/29 01:13:45;;;;;;;11.05;6.22;;;;;;;-2.72;100.00;101506.31;10255921;29;20039;-72
2024/01/29 01:18:45;;;;;;;13.80;6.43;;;;;;;-2.68;100.00;101528.72;10255204;29;20451;-72
2024/01/29 01:23:46;;;;;;;9.65;6.05;;;;;;;-2.67;100.00;101529.56;10255507;29;20049;-72
2024/01/29 01:28:47;;;;;;;11.60;6.35;;;;;;;-3.00;100.00;101488.22;10253269;29;20051;-72
2024/01/29 01:33:48;;;;;;;13.32;6.28;;;;;;;-2.80;100.00;101535.19;10254384;28;20046;-75
2024/01/29 01:38:49;;;;;;;11.55;5.55;;;;;;;-2.88;100.00;101537.19;10254304;29;20057;-72
2024/01/29 01:43:50;;;;;;;12.50;6.18;;;;;;;-3.19;100.00;101501.00;10246714;29;20066;-72
2024/01/29 01:48:53;;;;;;;13.38;6.65;;;;;;;-2.99;100.00;101552.34;10252603;28;20044;-72
2024/01/29 01:53:55;;;;;;;10.37;5.43;;;;;;;-3.21;100.00;101518.41;10254066;29;20050;-72
2024/01/29 01:58:59;;;;;;;12.77;6.32;;;;;;;-3.17;100.00;101563.31;10253505;28;20042;-72
2024/01/29 02:04:00;;;;;;;12.07;6.25;;;;;;;-3.30;100.00;101545.53;10252694;29;20054;-72
2024/01/29 02:09:01;;;;;;;14.73;6.15;;;;;;;-3.35;100.00;101551.78;10253042;28;20054;-72
2024/01/29 02:14:02;;;;;;;15.55;6.00;;;;;;;-3.49;100.00;101545.28;10252545;29;20074;-70
2024/01/29 02:19:13;;;;;;;17.58;6.72;;;;;;;-3.53;100.00;101542.81;10251573;28;20089;-73
2024/01/29 02:24:14;;;;;;;17.85;7.18;;;;;;;-3.47;100.00;101569.47;10251935;28;20130;-70
2024/01/29 02:29:14;;;;;;;20.40;7.70;;;;;;;-3.51;100.00;101562.66;10244836;28;20039;-70
2024/01/29 02:34:15;;;;;;;22.67;9.15;;;;;;;-3.55;100.00;101562.81;10245930;28;20407;-71
2024/01/29 02:39:16;;;;;;;21.75;6.63;;;;;;;-3.54;100.00;101551.53;10248732;28;20050;-70
2024/01/29 02:44:17;;;;;;;44.15;15.43;;;;;;;-3.51;100.00;101557.47;10252074;28;20063;-71
2024/01/29 02:49:17;;;;;;;25.48;10.30;;;;;;;-3.48;99.88;101572.94;10251568;28;20459;-70
2024/01/29 02:54:18;;;;;;;23.17;8.57;;;;;;;-3.45;100.00;101590.19;10251341;28;20043;-70
2024/01/29 02:59:19;;;;;;;19.73;7.28;;;;;;;-3.80;100.00;101544.53;10247593;28;20137;-72
2024/01/29 03:04:20;;;;;;;18.80;7.05;;;;;;;-3.57;100.00;101604.41;10246194;28;20554;-71
2024/01/29 03:09:20;;;;;;;16.60;6.53;;;;;;;-3.97;100.00;101537.28;10250956;28;20113;-69
2024/01/29 03:14:21;;;;;;;22.27;7.45;;;;;;;-3.70;100.00;101593.56;10252101;29;20130;-69
2024/01/29 03:19:22;;;;;;;19.85;6.60;;;;;;;-4.05;100.00;101554.81;10253852;28;20102;-70
2024/01/29 03:24:23;;;;;;;14.15;5.53;;;;;;;-3.70;99.93;101622.13;10257928;29;20043;-69
2024/01/29 03:29:23;;;;;;;15.48;5.93;;;;;;;-3.72;100.00;101623.91;10259037;28;20074;-70
2024/01/29 03:34:24;;;;;;;16.25;6.47;;;;;;;-4.16;100.00;101560.28;10259055;28;20038;-68
2024/01/29 03:39:25;;;;;;;15.65;6.35;;;;;;;-4.02;100.00;101586.72;10258281;28;20043;-69
2024/01/29 03:44:25;;;;;;;16.55;6.28;;;;;;;-3.71;100.00;101640.31;10258747;28;20586;-69
2024/01/29 03:49:26;;;;;;;14.25;5.47;;;;;;;-3.96;100.00;101589.13;10259129;28;20043;-70
2024/01/29 03:54:27;;;;;;;17.27;6.68;;;;;;;-4.16;99.99;101573.28;10258125;28;20086;-70
2024/01/29 03:59:28;;;;;;;20.15;6.45;;;;;;;-4.02;99.78;101606.63;10257845;28;20066;-71
2024/01/29 04:04:28;;;;;;;18.65;6.50;;;;;;;-3.81;100.00;101655.31;10255974;28;20043;-72
2024/01/29 04:09:30;;;;;;;21.30;6.13;;;;;;;-3.77;100.00;101675.13;10257609;28;20046;-70
2024/01/29 04:14:31;;;;;;;20.10;5.55;;;;;;;-3.58;100.00;101674.59;10257133;28;20492;-70
2024/01/29 04:19:32;;;;;;;15.57;5.93;;;;;;;-3.61;100.00;101675.53;10257310;28;20055;-71
2024/01/29 04:24:33;;;;;;;17.98;5.72;;;;;;;-3.78;99.84;101675.16;10255324;28;20515;-71
2024/01/29 04:29:34;;;;;;;15.35;5.82;;;;;;;-3.63;100.00;101684.25;10257054;28;20039;-74
2024/01/29 04:34:34;;;;;;;13.27;5.40;;;;;;;-3.64;99.76;101698.16;10256678;29;20054;-71
2024/01/29 04:39:38;;;;;;;14.85;5.60;;;;;;;-3.72;99.66;101691.41;10256832;29;20039;-69
2024/01/29 04:44:39;;;;;;;13.40;4.85;;;;;;;-3.66;99.52;101700.78;10256891;29;20059;-70
2024/01/29 04:49:40;;;;;;;12.02;5.00;;;;;;;-4.16;99.70;101625.16;10256424;29;20062;-70
2024/01/29 04:54:40;;;;;;;10.88;4.53;;;;;;;-3.76;98.97;101712.34;10256505;29;20039;-70
2024/01/29 04:59:41;;;;;;;6.60;3.60;;;;;;;-4.11;99.05;101700.31;10256073;29;20182;-70
2024/01/29 05:04:42;;;;;;;6.47;2.92;;;;;;;-4.22;98.78;101709.25;10255386;29;20051;-70
2024/01/29 05:09:43;;;;;;;9.82;3.30;;;;;;;-4.10;98.53;101738.34;10255830;29;20126;-70
2024/01/29 05:14:43;;;;;;;9.93;4.65;;;;;;;-4.15;98.46;101730.69;10255955;28;20089;-70
2024/01/29 05:19:45;;;;;;;10.25;4.88;;;;;;;-4.08;98.13;101741.75;10254772;29;20039;-70
2024/01/29 05:24:46;;;;;;;7.28;3.25;;;;;;;-4.02;98.07;101751.97;10255197;29;20047;-70
2024/01/29 05:29:46;;;;;;;6.43;3.13;;;;;;;-3.96;97.80;101754.41;10254412;29;20053;-70
2024/01/29 05:34:47;;;;;;;6.25;3.65;;;;;;;-4.00;97.51;101747.59;10254583;29;20051;-70
2024/01/29 05:39:48;;;;;;;7.90;3.53;;;;;;;-3.94;97.52;101761.25;10254035;29;20130;-70
2024/01/29 05:44:50;;;;;;;5.47;2.90;;;;;;;-3.83;97.63;101755.78;10253307;28;20423;-70
2024/01/29 05:49:50;;;;;;;7.43;3.58;;;;;;;-3.82;97.15;101780.84;10253732;28;20039;-70
2024/01/29 05:54:51;;;;;;;4.15;2.17;;;;;;;-3.85;96.85;101772.31;10254206;28;20043;-71
2024/01/29 05:59:52;;;;;;;5.55;2.72;;;;;;;-3.78;96.63;101782.47;10254286;29;20058;-70
2024/01/29 06:04:52;;;;;;;5.00;2.85;;;;;;;-4.00;96.63;101735.47;10253560;29;20083;-70
2024/01/29 06:09:53;;;;;;;7.32;3.22;;;;;;;-3.82;95.48;101748.84;10253512;29;20106;-70
2024/01/29 06:14:54;;;;;;;5.88;2.97;;;;;;;-3.73;95.24;101792.75;10252733;29;20074;-70
2024/01/29 06:19:54;;;;;;;8.38;3.08;;;;;;;-3.76;95.63;101788.47;10252183;29;20106;-70
2024/01/29 06:24:55;;;;;;;5.10;2.17;;;;;;;-3.66;95.07;101791.69;10253006;28;20047;-70
2024/01/29 06:29:56;;;;;;;4.47;2.33;;;;;;;-3.68;94.83;101804.72;10252364;29;20075;-70
2024/01/29 06:34:57;;;;;;;7.05;3.17;;;;;;;-3.74;95.03;101755.53;10251992;29;20042;-70
2024/01/29 06:39:57;;;;;;;7.90;3.15;;;;;;;-3.41;94.30;101802.28;10252969;29;20043;-70
2024/01/29 06:44:58;;;;;;;7.68;3.15;;;;;;;-3.54;94.17;101806.94;10252244;29;20062;-70
2024/01/29 06:49:59;;;;;;;11.10;5.03;;;;;;;-3.33;93.79;101812.44;10252205;29;20090;-70
2024/01/29 06:55:00;;;;;;;12.50;6.15;;;;;;;-3.46;93.11;101804.13;10251301;28;20503;-70
2024/01/29 07:00:01;;;;;;;7.75;3.78;;;;;;;-3.36;93.18;101818.56;10252682;29;20591;-70
2024/01/29 07:05:02;;;;;;;6.00;3.05;;;;;;;-3.36;91.94;101825.50;10251751;29;20047;-70
2024/01/29 07:10:02;;;;;;;7.07;3.70;;;;;;;-3.26;92.47;101833.00;10252061;29;20047;-70
2024/01/29 07:15:03;;;;;;;16.45;6.28;;;;;;;-3.47;91.60;101782.50;10251074;29;20043;-70
2024/01/29 07:20:05;;;;;;;8.95;4.47;;;;;;;-3.35;90.82;101801.22;10250648;29;20443;-72
2024/01/29 07:25:06;;;;;;;8.13;4.07;;;;;;;-3.45;91.10;101801.47;10251158;28;20113;-70
2024/01/29 07:30:07;;;;;;;8.73;3.50;;;;;;;-3.03;90.54;101834.09;10250924;29;20039;-70
2024/01/29 07:35:09;;;;;;;12.95;4.60;;;;;;;-3.01;89.86;101846.16;10251303;29;20130;-70
2024/01/29 07:40:10;;;;;;;65.93;29.33;;;;;;;-2.96;89.78;101858.16;10250716;29;20035;-70
2024/01/29 07:45:11;;;;;;;144.50;54.47;;;;;;;-3.05;89.64;101860.16;10251622;28;20113;-70
2024/01/29 07:50:13;;;;;;;143.15;63.08;;;;;;;-3.37;89.13;101814.25;10250899;28;20408;-70
2024/01/29 07:55:14;;;;;;;21.20;11.02;;;;;;;-3.09;88.26;101865.47;10250119;28;20035;-70
2024/01/29 08:00:15;;;;;;;88.40;31.80;;;;;;;-2.86;89.20;101870.00;10250051;28;20043;-70
2024/01/29 08:05:15;;;;;;;20.52;8.73;;;;;;;-2.65;87.89;101856.38;10253599;28;20043;-71
2024/01/29 08:10:16;;;;;;;33.85;14.38;;;;;;;-2.83;87.04;101800.56;10257874;28;20492;-70
2024/01/29 08:15:17;;;;;;;91.63;36.42;;;;;;;-2.31;86.41;101861.38;10257914;28;20046;-70
2024/01/29 08:20:19;;;;;;;21.83;9.93;;;;;;;-2.75;86.54;101841.94;10257637;28;20090;-70
2024/01/29 08:25:20;;;;;;;29.60;15.82;;;;;;;-2.59;86.82;101864.00;10257717;29;20393;-71
2024/01/29 08:30:21;;;;;;;11.52;6.25;;;;;;;-2.36;86.00;101860.69;10257434;28;20564;-70
2024/01/29 08:35:22;;;;;;;7.40;4.03;;;;;;;-2.76;85.52;101803.81;10256993;29;20122;-70
2024/01/29 08:40:22;;;;;;;7.03;3.45;;;;;;;-2.51;85.33;101850.75;10257086;29;21166;-70
2024/01/29 08:45:23;;;;;;;6.22;3.30;;;;;;;-2.24;84.47;101846.44;10256200;29;20094;-71
2024/01/29 08:50:24;;;;;;;35.83;17.08;;;;;;;-2.57;84.27;101801.50;10257007;29;20043;-70
2024/01/29 08:55:25;;;;;;;17.65;9.55;;;;;;;-2.15;84.53;101853.09;10256340;28;20090;-70
2024/01/29 09:00:25;;;;;;;35.92;18.23;;;;;;;-2.00;84.20;101849.16;10255581;29;20043;-70
2024/01/29 09:05:26;;;;;;;14.77;7.95;;;;;;;-2.22;83.89;101864.59;10256044;28;20046;-70
2024/01/29 09:10:27;;;;;;;31.30;16.10;;;;;;;-2.36;84.33;101855.47;10256490;28;20043;-70
2024/01/29 09:15:28;;;;;;;19.33;12.00;;;;;;;-2.62;83.22;101855.44;10254116;28;20043;-70
2024/01/29 09:20:28;;;;;;;12.18;6.90;;;;;;;-2.58;83.89;101849.22;10255521;28;20094;-70
2024/01/29 09:25:29;;;;;;;9.90;5.95;;;;;;;-2.98;82.53;101811.41;10256034;28;20047;-70
2024/01/29 09:30:30;;;;;;;11.15;6.95;;;;;;;-2.71;83.65;101853.97;10255327;29;20543;-70
2024/01/29 09:35:31;;;;;;;10.00;6.07;;;;;;;-2.63;83.36;101869.31;10254255;29;20042;-70
2024/01/29 09:40:32;;;;;;;9.07;5.20;;;;;;;-2.43;82.91;101866.97;10254151;29;20369;-70
2024/01/29 09:45:35;;;;;;;7.65;4.32;;;;;;;-2.52;82.20;101859.44;10254383;29;20078;-70
2024/01/29 09:50:37;;;;;;;13.98;7.72;;;;;;;-3.11;82.09;101817.84;10254420;29;20047;-72
2024/01/29 09:55:38;;;;;;;15.18;9.43;;;;;;;-3.04;82.38;101868.78;10254892;29;20039;-70
2024/01/29 10:00:39;;;;;;;7.38;4.28;;;;;;;-3.01;82.53;101874.75;10253987;29;20054;-70
2024/01/29 10:05:40;;;;;;;9.52;5.22;;;;;;;-3.23;82.64;101874.50;10253217;29;20047;-70
2024/01/29 10:10:41;;;;;;;10.88;6.40;;;;;;;-3.36;83.36;101867.94;10254289;29;20040;-70
2024/01/29 10:15:43;;;;;;;12.20;6.43;;;;;;;-3.59;82.38;101839.09;10253137;29;20047;-70
2024/01/29 10:20:43;;;;;;;10.02;4.45;;;;;;;-3.41;82.45;101892.31;10253189;29;20054;-70
2024/01/29 10:25:54;;;;;;;9.90;4.80;;;;;;;-3.30;81.95;101898.09;10252981;29;20038;-70
2024/01/29 10:30:56;;;;;;;10.80;3.15;;;;;;;-3.42;82.08;101899.28;10253186;28;20113;-70
2024/01/29 10:36:00;;;;;;;7.03;3.45;;;;;;;-3.85;82.50;101858.84;10252688;29;20043;-70
2024/01/29 10:41:05;;;;;;;7.22;4.07;;;;;;;-3.64;83.00;101927.56;10253081;29;20043;-70
2024/01/29 10:46:08;;;;;;;7.57;3.33;;;;;;;-3.77;82.94;101908.84;10252426;29;20069;-70
2024/01/29 10:51:12;;;;;;;8.10;3.97;;;;;;;-3.93;82.83;101892.75;10251677;29;20047;-70
2024/01/29 10:56:15;;;;;;;11.02;7.22;;;;;;;-3.96;83.47;101899.78;10252141;29;20110;-70
2024/01/29 11:01:16;;;;;;;20.07;9.67;;;;;;;-4.06;83.15;101921.66;10251516;29;20043;-70
2024/01/29 11:06:26;;;;;;;111.72;46.33;;;;;;;-4.15;83.76;101928.75;10252111;29;20555;-70
2024/01/29 11:11:28;;;;;;;27.88;14.57;;;;;;;-4.05;83.97;101929.41;10252136;28;20054;-70
2024/01/29 11:16:29;;;;;;;57.30;25.55;;;;;;;-3.85;83.50;101931.53;10251100;28;20043;-70
2024/01/29 11:21:31;;;;;;;23.15;11.38;;;;;;;-3.97;83.32;101891.13;10250354;29;20031;-70
2024/01/29 11:26:32;;;;;;;11.32;6.07;;;;;;;-3.56;83.17;101929.94;10251542;28;20134;-70
2024/01/29 11:31:43;;;;;;;9.60;4.88;;;;;;;-3.32;82.21;101957.94;10251241;28;20043;-70
2024/01/29 11:36:53;;;;;;;6.60;2.95;;;;;;;-3.25;81.91;101948.22;10251436;29;20094;-70
2024/01/29 11:41:54;;;;;;;5.45;2.70;;;;;;;-3.14;82.68;101951.38;10256331;28;20070;-70
2024/01/29 11:46:56;;;;;;;11.52;6.68;;;;;;;-3.32;82.22;101970.03;10259280;29;20137;-70
2024/01/29 11:51:56;;;;;;;11.43;4.78;;;;;;;-3.97;82.33;101927.47;10258265;29;20566;-70
2024/01/29 11:56:57;;;;;;;5.40;3.05;;;;;;;-3.74;82.41;101972.81;10258088;29;20043;-71
2024/01/29 12:01:58;;;;;;;5.50;3.38;;;;;;;-3.74;82.57;101965.88;10258738;29;20054;-70
2024/01/29 12:06:59;;;;;;;6.18;2.53;;;;;;;-3.63;82.63;101994.19;10257508;29;20051;-70
2024/01/29 12:11:59;;;;;;;6.20;2.10;;;;;;;-3.65;82.25;101987.31;10258086;29;20419;-67
2024/01/29 12:17:00;;;;;;;4.10;1.92;;;;;;;-3.78;82.85;101989.34;10256252;29;20039;-67
2024/01/29 12:22:01;;;;;;;4.07;2.10;;;;;;;-4.00;82.92;101995.03;10254287;29;20039;-67
2024/01/29 12:27:02;;;;;;;4.07;2.03;;;;;;;-3.88;83.72;102019.03;10256083;29;20058;-67
2024/01/29 12:32:11;;;;;;;3.60;1.60;;;;;;;-3.95;83.23;102029.56;10256583;28;20051;-67
2024/01/29 12:37:22;;;;;;;4.30;1.55;;;;;;;-4.06;83.17;102021.13;10255394;29;20134;-67
2024/01/29 12:42:25;;;;;;;4.82;2.00;;;;;;;-4.13;83.45;102025.63;10248542;28;20054;-66
2024/01/29 12:47:26;;;;;;;5.07;2.38;;;;;;;-4.04;83.92;102034.06;10243571;29;20050;-71
2024/01/29 12:52:30;;;;;;;5.57;2.00;;;;;;;-4.00;83.64;102031.38;10256474;28;20588;-67
2024/01/29 12:57:30;;;;;;;4.75;1.90;;;;;;;-4.40;83.68;102000.22;10255789;28;20050;-67
2024/01/29 13:02:31;;;;;;;3.80;1.98;;;;;;;-4.59;84.33;102008.38;10255494;28;20050;-67
2024/01/29 13:07:32;;;;;;;7.75;1.88;;;;;;;-4.46;84.78;102054.81;10255783;29;20055;-66
2024/01/29 13:12:32;;;;;;;5.82;2.85;;;;;;;-4.39;84.99;102059.03;10254359;28;20110;-68
2024/01/29 13:17:33;;;;;;;20.30;6.03;;;;;;;-4.53;84.67;102066.22;10254284;28;20118;-66
2024/01/29 13:22:35;;;;;;;26.83;8.85;;;;;;;-4.69;85.72;102068.25;10248649;28;20051;-66
2024/01/29 13:27:36;;;;;;;45.22;19.33;;;;;;;-4.77;85.44;102058.00;10219504;28;20548;-67
2024/01/29 13:32:39;;;;;;;184.82;57.75;;;;;;;-4.85;86.19;102078.03;10214354;29;20138;-67
2024/01/29 13:37:39;;;;;;;34.47;14.45;;;;;;;-4.86;86.63;102073.72;10245338;29;20512;-67
2024/01/29 13:42:40;;;;;;;54.80;21.55;;;;;;;-4.88;86.66;102081.50;10252849;28;20055;-68
2024/01/29 13:47:41;;;;;;;68.47;25.38;;;;;;;-5.01;86.92;102085.22;10250137;28;20087;-69
2024/01/29 13:52:42;;;;;;;47.47;21.08;;;;;;;-5.54;86.58;102035.13;10248992;28;20047;-68
2024/01/29 13:57:42;;;;;;;7.25;3.95;;;;;;;-5.21;87.40;102093.31;10243273;28;20043;-68
2024/01/29 14:02:43;;;;;;;4.53;2.22;;;;;;;-5.28;87.93;102078.75;10240157;28;20408;-68
2024/01/29 14:07:44;;;;;;;3.63;1.52;;;;;;;-5.19;87.76;102101.06;10233214;29;20050;-67
2024/01/29 14:12:45;;;;;;;5.75;1.98;;;;;;;-5.50;87.73;102067.88;10231935;29;20036;-68
2024/01/29 14:17:45;;;;;;;2.63;1.15;;;;;;;-5.57;87.94;102094.72;10238167;28;20050;-68
2024/01/29 14:22:46;;;;;;;4.63;1.20;;;;;;;-5.47;88.33;102129.09;10239173;29;20047;-68
2024/01/29 14:27:47;;;;;;;2.30;1.20;;;;;;;-5.60;88.48;102129.28;10249272;29;20559;-67
2024/01/29 14:32:48;;;;;;;3.35;1.33;;;;;;;-5.54;88.61;102156.81;10252600;28;20031;-68
2024/01/29 14:37:49;;;;;;;3.78;1.13;;;;;;;-5.44;88.75;102155.84;10253443;29;20043;-68
2024/01/29 14:42:51;;;;;;;3.83;1.25;;;;;;;-5.81;88.57;102091.59;10251586;29;20039;-68
2024/01/29 14:47:52;;;;;;;4.07;1.25;;;;;;;-5.41;89.19;102170.47;10252334;28;20503;-68
2024/01/29 14:52:52;;;;;;;3.70;1.42;;;;;;;-5.45;88.79;102171.38;10251700;29;20039;-68
2024/01/29 14:57:53;;;;;;;3.17;1.30;;;;;;;-5.51;89.00;102182.66;10250887;29;20043;-71
2024/01/29 15:02:54;;;;;;;5.30;1.38;;;;;;;-5.51;88.98;102190.44;10252069;28;20047;-68
2024/01/29 15:07:55;;;;;;;3.17;1.30;;;;;;;-5.74;89.09;102170.03;10251222;28;20047;-68
2024/01/29 15:12:56;;;;;;;6.00;1.50;;;;;;;-5.83;89.07;102149.44;10251528;28;20121;-68
2024/01/29 15:17:56;;;;;;;3.63;1.77;;;;;;;-5.49;89.63;102205.97;10251303;28;20134;-69
2024/01/29 15:22:57;;;;;;;5.72;2.30;;;;;;;-5.63;89.70;102183.69;10251692;28;20493;-68
2024/01/29 15:27:58;;;;;;;4.63;1.05;;;;;;;-5.54;89.52;102214.63;10251491;28;20084;-68
2024/01/29 15:32:59;;;;;;;3.30;1.63;;;;;;;-5.71;89.53;102210.53;10251420;28;20035;-68
2024/01/29 15:37:59;;;;;;;5.18;2.40;;;;;;;-5.94;90.24;102162.53;10250842;28;20067;-68
2024/01/29 15:43:03;;;;;;;3.40;1.35;;;;;;;-5.82;89.83;102166.69;10250627;28;20059;-68
2024/01/29 15:48:04;;;;;;;4.30;2.43;;;;;;;-5.53;89.98;102220.69;10251007;28;20047;-68
2024/01/29 15:53:04;;;;;;;3.05;1.70;;;;;;;-5.48;89.88;102233.56;10250470;28;20043;-68
2024/01/29 15:58:05;;;;;;;3.45;1.20;;;;;;;-5.59;89.71;102226.81;10249586;28;20046;-68
2024/01/29 16:03:06;;;;;;;3.58;1.75;;;;;;;-5.61;90.27;102244.09;10249245;29;20038;-68
2024/01/29 16:08:12;;;;;;;3.97;1.92;;;;;;;-5.53;90.39;102231.06;10250596;29;20420;-68
2024/01/29 16:13:12;;;;;;;3.90;1.77;;;;;;;-5.41;90.46;102235.22;10250176;28;20126;-68
2024/01/29 16:18:14;;;;;;;3.65;1.55;;;;;;;-5.34;90.63;102242.03;10249770;29;20039;-68
2024/01/29 16:23:15;;;;;;;1.90;1.10;;;;;;;-5.35;90.69;102236.00;10250265;28;20531;-68
2024/01/29 16:28:15;;;;;;;2.78;0.93;;;;;;;-5.22;90.57;102243.59;10255480;28;20102;-68
2024/01/29 16:33:16;;;;;;;3.95;2.10;;;;;;;-5.17;90.42;102252.19;10257191;28;20488;-68
2024/01/29 16:38:17;;;;;;;2.65;1.48;;;;;;;-5.12;90.88;102269.34;10257722;28;20137;-68
2024/01/29 16:43:19;;;;;;;4.03;1.10;;;;;;;-5.16;90.76;102257.31;10256005;29;20149;-68
2024/01/29 16:48:21;;;;;;;2.50;1.00;;;;;;;-5.14;90.96;102265.94;10256505;29;20559;-68
2024/01/29 16:53:22;;;;;;;2.42;1.20;;;;;;;-5.11;90.69;102271.09;10256017;29;20039;-68
2024/01/29 16:58:22;;;;;;;2.70;1.20;;;;;;;-5.17;91.28;102254.78;10256272;28;20480;-68
2024/01/29 17:03:23;;;;;;;2.15;0.95;;;;;;;-5.34;91.00;102216.97;10256181;29;20066;-68
2024/01/29 17:08:24;;;;;;;2.67;1.25;;;;;;;-5.01;91.19;102277.00;10255371;29;20043;-72
2024/01/29 17:13:26;;;;;;;2.70;1.30;;;;;;;-4.97;91.16;102275.22;10254885;28;20524;-68
2024/01/29 17:18:27;;;;;;;4.45;1.20;;;;;;;-4.94;91.24;102280.34;10255066;29;20562;-68
2024/01/29 17:23:28;;;;;;;1.95;1.17;;;;;;;-5.23;91.17;102242.75;10255429;29;20040;-68
2024/01/29 17:28:29;;;;;;;3.28;1.30;;;;;;;-5.02;91.45;102258.88;10254802;29;20043;-68
2024/01/29 17:33:30;;;;;;;2.33;1.27;;;;;;;-5.19;91.27;102231.47;10254717;29;20054;-68
2024/01/29 17:38:31;;;;;;;3.92;1.42;;;;;;;-4.96;91.14;102275.22;10254153;28;20047;-68
2024/01/29 17:43:32;;;;;;;2.40;0.90;;;;;;;-4.90;91.31;102287.22;10254133;29;20479;-68
2024/01/29 17:48:33;;;;;;;2.47;1.27;;;;;;;-5.28;90.95;102241.94;10253980;29;20407;-68
2024/01/29 17:53:33;;;;;;;3.35;1.67;;;;;;;-5.05;91.53;102276.19;10253721;29;20043;-68
2024/01/29 17:58:35;;;;;;;2.80;1.05;;;;;;;-4.89;91.50;102304.50;10254025;29;20102;-68
2024/01/29 18:03:36;;;;;;;6.22;1.23;;;;;;;-5.00;91.15;102293.41;10253795;29;20043;-68
2024/01/29 18:08:36;;;;;;;2.72;1.27;;;;;;;-5.03;91.12;102294.28;10253262;29;20038;-68
2024/01/29 18:13:37;;;;;;;4.93;1.80;;;;;;;-5.25;91.07;102251.41;10253365;29;20419;-68
2024/01/29 18:18:38;;;;;;;2.70;1.20;;;;;;;-5.01;91.17;102302.06;10253322;29;20039;-68
2024/01/29 18:23:38;;;;;;;2.72;1.50;;;;;;;-4.97;91.28;102324.47;10251965;29;20043;-68
2024/01/29 18:28:39;;;;;;;12.40;1.92;;;;;;;-4.99;91.50;102319.31;10252461;28;20126;-68
2024/01/29 18:33:40;;;;;;;4.55;1.77;;;;;;;-5.14;91.30;102294.44;10251623;29;20039;-69
2024/01/29 18:38:41;;;;;;;5.78;2.50;;;;;;;-4.99;91.42;102314.13;10252163;28;20464;-68
2024/01/29 18:43:43;;;;;;;5.18;1.70;;;;;;;-4.93;91.69;102333.94;10251514;28;20141;-68
2024/01/29 18:48:47;;;;;;;2.92;1.63;;;;;;;-4.87;91.81;102332.09;10252234;28;20046;-68
2024/01/29 18:53:50;;;;;;;3.05;1.40;;;;;;;-4.87;91.58;102363.22;10249517;29;20086;-69
2024/01/29 18:58:51;;;;;;;3.10;1.55;;;;;;;-4.95;91.87;102346.03;10252664;28;20070;-68
2024/01/29 19:03:52;;;;;;;2.80;1.45;;;;;;;-4.90;91.48;102344.25;10250560;29;20055;-68
2024/01/29 19:08:53;;;;;;;4.10;1.95;;;;;;;-5.37;91.60;102276.59;10251717;28;20035;-68
2024/01/29 19:13:54;;;;;;;4.90;2.22;;;;;;;-4.86;92.08;102346.78;10251106;28;20554;-68
2024/01/29 19:18:55;;;;;;;5.30;1.63;;;;;;;-5.23;91.45;102301.50;10252173;28;20077;-72
2024/01/29 19:23:56;;;;;;;2.72;1.30;;;;;;;-5.00;91.77;102355.59;10252021;28;20039;-68
2024/01/29 19:28:57;;;;;;;6.15;1.50;;;;;;;-5.10;92.02;102341.91;10250859;28;20073;-68
2024/01/29 19:33:58;;;;;;;4.50;1.48;;;;;;;-5.00;91.77;102350.41;10251487;28;20047;-68
2024/01/29 19:38:59;;;;;;;2.08;0.85;;;;;;;-5.03;91.72;102363.41;10252416;28;20400;-69
2024/01/29 19:43:59;;;;;;;1.95;1.20;;;;;;;-5.10;91.45;102353.13;10249872;29;20440;-68
2024/01/29 19:49:00;;;;;;;1.85;0.90;;;;;;;-5.35;91.37;102331.84;10250607;28;20058;-69
2024/01/29 19:54:01;;;;;;;3.83;1.20;;;;;;;-5.32;91.19;102362.03;10250942;28;20043;-69
2024/01/29 19:59:02;;;;;;;1.73;0.90;;;;;;;-5.40;91.30;102362.09;10250246;28;20046;-69
2024/01/29 20:04:02;;;;;;;2.63;1.38;;;;;;;-5.35;91.51;102364.66;10257790;28;20396;-69
2024/01/29 20:09:05;;;;;;;1.85;1.00;;;;;;;-5.28;91.82;102367.16;10257690;28;20050;-69
2024/01/29 20:14:05;;;;;;;2.42;1.30;;;;;;;-5.25;91.57;102365.41;10258174;28;20050;-69
2024/01/29 20:19:06;;;;;;;2.15;0.95;;;;;;;-5.44;91.31;102369.91;10257894;28;20042;-69
2024/01/29 20:24:11;;;;;;;2.05;0.98;;;;;;;-5.44;91.63;102370.78;10257847;28;20043;-68
2024/01/29 20:29:12;;;;;;;2.88;1.50;;;;;;;-5.40;91.20;102382.84;10258406;28;20039;-69
2024/01/29 20:34:13;;;;;;;3.80;1.17;;;;;;;-5.53;91.08;102395.06;10257277;28;20464;-68
2024/01/29 20:39:14;;;;;;;3.47;1.10;;;;;;;-5.61;91.21;102383.06;10256605;28;20101;-69
2024/01/29 20:44:15;;;;;;;2.92;1.20;;;;;;;-5.56;91.77;102396.81;10256048;28;20082;-69
2024/01/29 20:49:16;;;;;;;2.20;1.13;;;;;;;-5.90;91.27;102339.31;10257317;28;20035;-69
2024/01/29 20:54:16;;;;;;;4.43;1.13;;;;;;;-5.80;91.48;102348.72;10256518;28;20125;-69
2024/01/29 20:59:17;;;;;;;3.53;1.23;;;;;;;-5.61;90.99;102389.09;10255881;28;20039;-69
2024/01/29 21:04:18;;;;;;;2.72;1.25;;;;;;;-5.51;91.23;102403.66;10255776;28;20252;-69
2024/01/29 21:09:18;;;;;;;2.50;1.10;;;;;;;-5.56;91.11;102371.78;10256951;28;20043;-68
2024/01/29 21:14:19;;;;;;;1.95;1.00;;;;;;;-5.49;91.28;102387.25;10254572;28;20444;-69
2024/01/29 21:19:20;;;;;;;3.17;1.45;;;;;;;-5.40;91.27;102402.69;10255184;28;20126;-69
2024/01/29 21:24:21;;;;;;;4.38;1.30;;;;;;;-5.66;91.41;102364.09;10253786;28;20054;-69
2024/01/29 21:29:21;;;;;;;3.55;1.23;;;;;;;-5.77;91.43;102346.94;10255057;29;20117;-69
2024/01/29 21:34:22;;;;;;;2.05;1.00;;;;;;;-5.48;91.37;102391.56;10255023;29;20510;-69
2024/01/29 21:39:23;;;;;;;3.85;1.30;;;;;;;-5.55;91.33;102378.66;10254745;29;20134;-69
2024/01/29 21:44:24;;;;;;;2.03;1.05;;;;;;;-5.66;91.40;102346.84;10254099;29;20102;-69
2024/01/29 21:49:24;;;;;;;1.65;0.85;;;;;;;-5.55;91.27;102365.72;10254969;29;20055;-69
2024/01/29 21:54:26;;;;;;;3.22;1.15;;;;;;;-5.54;90.97;102384.69;10254182;29;20436;-69
2024/01/29 21:59:27;;;;;;;2.17;1.10;;;;;;;-5.54;90.98;102392.47;10253536;29;20051;-69
2024/01/29 22:04:28;;;;;;;3.08;1.30;;;;;;;-5.61;90.88;102404.63;10253772;28;20122;-69
2024/01/29 22:09:29;;;;;;;2.90;1.30;;;;;;;-5.63;91.15;102414.13;10253793;29;20142;-69
2024/01/29 22:14:30;;;;;;;6.60;1.10;;;;;;;-5.63;91.58;102416.72;10253705;29;20058;-69
2024/01/29 22:19:30;;;;;;;2.85;1.40;;;;;;;-6.04;91.23;102355.84;10252800;29;20100;-69
2024/01/29 22:24:31;;;;;;;2.53;1.15;;;;;;;-5.89;91.24;102383.31;10252293;28;20043;-69
2024/01/29 22:29:32;;;;;;;2.10;1.08;;;;;;;-5.78;91.68;102403.91;10251187;29;20047;-69
2024/01/29 22:34:32;;;;;;;2.58;1.25;;;;;;;-5.99;91.07;102376.50;10252833;29;20039;-69
2024/01/29 22:39:33;;;;;;;2.75;1.48;;;;;;;-6.09;90.83;102355.03;10252844;29;20043;-69
2024/01/29 22:44:34;;;;;;;3.55;1.20;;;;;;;-5.82;90.93;102410.00;10252574;29;20089;-69
2024/01/29 22:49:35;;;;;;;2.95;1.00;;;;;;;-5.75;91.06;102425.44;10252851;28;20059;-69
2024/01/29 22:54:36;;;;;;;1.90;0.90;;;;;;;-5.81;91.08;102419.47;10252701;29;20139;-69